TimePDT,TemperatureF,Dew PointF,Humidity,Sea Level PressureIn,VisibilityMPH,Wind Direction,Wind SpeedMPH,Gust SpeedMPH,PrecipitationIn,Events,Conditions,WindDirDegrees,DateUTC
12:15 AM,53.6,48.2,82,30.08,10.0,South,6.9,-,N/A,,Clear,190,2013-09-27 07:15:00
12:35 AM,53.6,48.2,82,30.07,10.0,South,8.1,-,N/A,,Clear,180,2013-09-27 07:35:00
12:55 AM,53.6,48.2,82,30.06,10.0,South,11.5,-,N/A,,Clear,190,2013-09-27 07:55:00
1:15 AM,53.6,48.2,82,30.06,10.0,South,11.5,-,N/A,,Clear,190,2013-09-27 08:15:00
1:35 AM,53.6,48.2,82,30.06,10.0,SSW,11.5,-,N/A,,Clear,200,2013-09-27 08:35:00
1:55 AM,53.6,50.0,88,30.06,10.0,South,12.7,-,N/A,,Clear,190,2013-09-27 08:55:00
2:15 AM,53.6,50.0,88,30.05,10.0,South,11.5,18.4,N/A,,Clear,190,2013-09-27 09:15:00
2:35 AM,53.6,50.0,88,30.04,10.0,SSW,12.7,-,N/A,,Clear,200,2013-09-27 09:35:00
2:55 AM,53.6,50.0,88,30.03,10.0,South,15.0,-,N/A,,Clear,190,2013-09-27 09:55:00
3:15 AM,53.6,48.2,82,30.03,10.0,SSW,16.1,-,N/A,,Scattered Clouds,200,2013-09-27 10:15:00
3:35 AM,53.6,48.2,82,30.02,10.0,SSW,16.1,20.7,N/A,,Partly Cloudy,200,2013-09-27 10:35:00
3:55 AM,53.6,48.2,82,30.02,10.0,SSW,15.0,20.7,N/A,,Clear,200,2013-09-27 10:55:00
4:15 AM,53.6,48.2,82,30.02,10.0,South,15.0,-,N/A,,Clear,190,2013-09-27 11:15:00
4:35 AM,53.6,48.2,82,30.02,10.0,South,10.4,-,N/A,Rain,Light Rain,190,2013-09-27 11:35:00
4:55 AM,53.6,48.2,82,30.02,8.0,South,10.4,-,N/A,Rain,Light Rain,190,2013-09-27 11:55:00
5:15 AM,51.8,50.0,94,30.02,5.0,South,8.1,-,N/A,Rain,Light Rain,180,2013-09-27 12:15:00
5:35 AM,50.0,50.0,100,30.01,5.0,SSW,10.4,-,N/A,Rain,Light Rain,210,2013-09-27 12:35:00
5:55 AM,50.0,50.0,100,30.00,5.0,SSW,8.1,-,0.01,Rain,Rain,200,2013-09-27 12:55:00
6:15 AM,50.0,50.0,100,29.99,5.0,SSW,9.2,-,N/A,Rain,Rain,210,2013-09-27 13:15:00
6:35 AM,51.8,50.0,94,30.00,7.0,SSW,6.9,-,0.01,Rain,Light Rain,210,2013-09-27 13:35:00
6:55 AM,50.0,50.0,100,30.02,5.0,South,3.5,-,0.01,Rain,Light Rain,180,2013-09-27 13:55:00
7:15 AM,50.0,50.0,100,30.01,4.0,Calm,Calm,-,0.01,Rain,Rain,0,2013-09-27 14:15:00
7:35 AM,50.0,50.0,100,30.00,6.0,Calm,Calm,-,0.03,Rain,Light Rain,0,2013-09-27 14:35:00
7:55 AM,50.0,50.0,100,30.00,6.0,Calm,Calm,-,0.03,Rain,Light Rain,0,2013-09-27 14:55:00
8:15 AM,50.0,50.0,100,29.99,5.0,Calm,Calm,-,N/A,Rain,Light Rain,0,2013-09-27 15:15:00
8:35 AM,50.0,50.0,100,29.99,1.8,Calm,Calm,-,N/A,Rain,Light Rain,0,2013-09-27 15:35:00
8:55 AM,50.0,50.0,100,29.98,3.0,Calm,Calm,-,N/A,Rain,Light Rain,0,2013-09-27 15:55:00
9:15 AM,51.8,51.8,100,29.97,9.0,Calm,Calm,-,N/A,,Overcast,0,2013-09-27 16:15:00
9:35 AM,51.8,51.8,100,29.97,7.0,Calm,Calm,-,N/A,Rain,Light Rain,0,2013-09-27 16:35:00
9:55 AM,51.8,50.0,94,29.97,5.0,Calm,Calm,-,N/A,Rain,Light Rain,0,2013-09-27 16:55:00
10:15 AM,51.8,50.0,94,29.96,8.0,Calm,Calm,-,N/A,Rain,Light Rain,0,2013-09-27 17:15:00
10:35 AM,51.8,50.0,94,29.95,9.0,Calm,Calm,-,N/A,,Overcast,0,2013-09-27 17:35:00
10:55 AM,53.6,50.0,88,29.95,3.0,Calm,Calm,-,N/A,Rain,Light Rain,0,2013-09-27 17:55:00
11:15 AM,53.6,51.8,94,29.94,8.0,South,4.6,-,N/A,,Mostly Cloudy,170,2013-09-27 18:15:00
11:35 AM,53.6,51.8,94,29.93,5.0,South,5.8,-,N/A,Rain,Light Rain,170,2013-09-27 18:35:00
11:55 AM,53.6,51.8,94,29.93,4.0,South,6.9,-,N/A,Rain,Light Rain,170,2013-09-27 18:55:00
12:15 PM,53.6,51.8,94,29.92,7.0,South,5.8,-,N/A,,Mostly Cloudy,180,2013-09-27 19:15:00
12:35 PM,53.6,51.8,94,29.92,9.0,South,6.9,-,N/A,,Overcast,190,2013-09-27 19:35:00
12:55 PM,53.6,51.8,94,29.92,10.0,South,4.6,-,N/A,,Overcast,170,2013-09-27 19:55:00
1:15 PM,53.6,51.8,94,29.91,10.0,South,8.1,-,N/A,,Overcast,190,2013-09-27 20:15:00
1:35 PM,55.4,51.8,88,29.90,8.0,SSW,11.5,17.3,N/A,,Overcast,200,2013-09-27 20:35:00
1:55 PM,53.6,51.8,94,29.91,2.0,SSW,9.2,-,N/A,Rain,Light Rain,200,2013-09-27 20:55:00
2:15 PM,53.6,51.8,94,29.90,2.5,South,10.4,-,N/A,Rain,Light Rain,190,2013-09-27 21:15:00
2:35 PM,53.6,53.6,100,29.90,4.0,South,9.2,-,N/A,,Overcast,190,2013-09-27 21:35:00
2:55 PM,53.6,53.6,100,29.89,10.0,South,11.5,-,N/A,,Overcast,190,2013-09-27 21:55:00
3:15 PM,55.4,53.6,94,29.89,10.0,South,10.4,-,N/A,,Overcast,190,2013-09-27 22:15:00
3:35 PM,55.4,53.6,94,29.89,10.0,South,6.9,-,N/A,,Mostly Cloudy,180,2013-09-27 22:35:00
3:55 PM,55.4,53.6,94,29.88,10.0,South,10.4,-,N/A,,Scattered Clouds,190,2013-09-27 22:55:00
4:15 PM,55.4,51.8,88,29.88,10.0,South,9.2,-,N/A,,Scattered Clouds,190,2013-09-27 23:15:00
4:35 PM,55.4,51.8,88,29.88,10.0,South,9.2,17.3,N/A,,Mostly Cloudy,190,2013-09-27 23:35:00
4:55 PM,55.4,51.8,88,29.87,10.0,South,11.5,-,N/A,,Mostly Cloudy,190,2013-09-27 23:55:00
5:15 PM,55.4,51.8,88,29.87,10.0,South,10.4,-,N/A,,Partly Cloudy,190,2013-09-28 00:15:00
5:35 PM,55.4,51.8,88,29.88,10.0,South,10.4,-,N/A,,Partly Cloudy,190,2013-09-28 00:35:00
5:55 PM,55.4,51.8,88,29.87,10.0,South,10.4,-,N/A,,Scattered Clouds,190,2013-09-28 00:55:00
6:15 PM,55.4,51.8,88,29.87,10.0,SSW,10.4,-,N/A,,Scattered Clouds,200,2013-09-28 01:15:00
6:35 PM,55.4,51.8,88,29.87,10.0,South,10.4,-,N/A,,Mostly Cloudy,190,2013-09-28 01:35:00
6:55 PM,53.6,51.8,94,29.86,10.0,SSW,10.4,-,N/A,,Scattered Clouds,200,2013-09-28 01:55:00
7:15 PM,53.6,51.8,94,29.86,10.0,South,9.2,16.1,N/A,,Partly Cloudy,190,2013-09-28 02:15:00
7:35 PM,53.6,51.8,94,29.85,10.0,SSW,11.5,-,N/A,,Partly Cloudy,200,2013-09-28 02:35:00
7:55 PM,53.6,51.8,94,29.85,10.0,SSW,10.4,-,N/A,,Partly Cloudy,200,2013-09-28 02:55:00
8:15 PM,53.6,51.8,94,29.85,10.0,SSW,10.4,-,N/A,,Partly Cloudy,200,2013-09-28 03:15:00
8:35 PM,53.6,51.8,94,29.84,10.0,SSW,11.5,-,N/A,,Scattered Clouds,200,2013-09-28 03:35:00
8:55 PM,53.6,51.8,94,29.84,10.0,South,8.1,-,N/A,,Partly Cloudy,190,2013-09-28 03:55:00
9:15 PM,53.6,51.8,94,29.84,10.0,SSW,8.1,-,N/A,,Clear,210,2013-09-28 04:15:00
9:35 PM,53.6,51.8,94,29.84,10.0,SW,6.9,-,N/A,,Partly Cloudy,220,2013-09-28 04:35:00
9:55 PM,53.6,51.8,94,29.84,10.0,SSW,10.4,-,N/A,,Clear,200,2013-09-28 04:55:00
10:15 PM,53.6,51.8,94,29.84,10.0,SSW,9.2,-,N/A,,Clear,200,2013-09-28 05:15:00
10:35 PM,53.6,51.8,94,29.83,10.0,SSW,8.1,-,N/A,,Clear,200,2013-09-28 05:35:00
10:55 PM,53.6,51.8,94,29.82,10.0,SW,9.2,-,N/A,,Clear,220,2013-09-28 05:55:00
11:15 PM,53.6,51.8,94,29.81,10.0,South,9.2,-,N/A,,Clear,190,2013-09-28 06:15:00
11:35 PM,53.6,51.8,94,29.81,10.0,SSW,8.1,-,N/A,,Mostly Cloudy,200,2013-09-28 06:35:00
11:55 PM,53.6,51.8,94,29.80,10.0,South,8.1,-,N/A,,Mostly Cloudy,190,2013-09-28 06:55:00